Time;durP1;ratioP1;P1;durP2;ratioP2;P2;SDS_P1;SDS_P2;PMS_P1;PMS_P2;Temp;Humidity;BMP_temperature;BMP_pressure;BME280_temperature;BME280_humidity;BME280_pressure;Samples;Min_cycle;Max_cycle;Signal;HPM_P1;HPM_P2
2022/09/18 00:01:20;;;;;;;16.80;15.55;;;14.50;56.30;;;;;;5028745;28;20037;-77
2022/09/18 00:03:46;;;;;;;16.42;15.57;;;14.40;55.90;;;;;;5013922;28;20046;-77
2022/09/18 00:06:15;;;;;;;16.67;15.85;;;14.40;55.80;;;;;;5029794;28;20482;-77
2022/09/18 00:08:42;;;;;;;15.48;14.73;;;14.60;56.50;;;;;;4996601;28;20216;-77
2022/09/18 00:11:09;;;;;;;15.05;14.25;;;14.60;55.50;;;;;;5013148;28;20474;-77
2022/09/18 00:13:36;;;;;;;15.20;14.35;;;14.60;55.60;;;;;;4996876;28;20041;-77
2022/09/18 00:16:02;;;;;;;15.55;14.75;;;14.50;55.60;;;;;;5028710;28;20540;-77
2022/09/18 00:18:28;;;;;;;16.88;15.98;;;14.50;55.70;;;;;;4996522;28;20490;-76
2022/09/18 00:20:55;;;;;;;17.42;16.30;;;14.50;55.70;;;;;;5014263;28;20029;-77
2022/09/18 00:23:21;;;;;;;20.15;19.15;;;14.50;55.80;;;;;;5034384;28;20033;-77
2022/09/18 00:25:47;;;;;;;21.75;20.65;;;14.50;55.90;;;;;;5034522;28;20033;-77
2022/09/18 00:28:13;;;;;;;24.13;22.55;;;14.40;55.90;;;;;;5016718;28;20029;-77
2022/09/18 00:30:39;;;;;;;24.65;23.35;;;14.40;56.00;;;;;;5027715;28;20041;-77
2022/09/18 00:33:05;;;;;;;23.75;22.35;;;14.40;56.10;;;;;;4996617;28;20475;-77
2022/09/18 00:35:31;;;;;;;24.80;23.17;;;14.30;56.20;;;;;;5012871;28;20041;-77
2022/09/18 00:37:57;;;;;;;23.20;21.90;;;14.30;56.40;;;;;;5013246;28;20041;-76
2022/09/18 00:40:23;;;;;;;23.02;21.73;;;14.30;56.50;;;;;;5013167;28;20026;-76
2022/09/18 00:42:49;;;;;;;23.77;22.58;;;14.30;56.90;;;;;;5014503;28;20044;-77
2022/09/18 00:45:15;;;;;;;24.10;22.90;;;14.30;57.40;;;;;;5011824;28;20045;-77
2022/09/18 00:47:44;;;;;;;24.55;23.02;;;14.20;57.00;;;;;;5024183;28;20068;-76
2022/09/18 00:50:13;;;;;;;24.05;22.65;;;14.20;56.90;;;;;;5012967;28;20030;-77
2022/09/18 00:52:56;;;;;;;23.67;22.38;;;14.20;57.80;;;;;;5013040;28;20472;-77
2022/09/18 00:55:26;;;;;;;23.85;22.58;;;14.10;57.50;;;;;;4981093;28;20100;-77
2022/09/18 00:57:53;;;;;;;23.38;21.83;;;13.90;57.90;;;;;;4997020;28;20033;-77
2022/09/18 01:00:20;;;;;;;21.83;20.63;;;13.70;58.30;;;;;;4996184;28;20045;-77
2022/09/18 01:02:47;;;;;;;22.50;21.25;;;13.70;58.10;;;;;;4996664;28;20048;-77
2022/09/18 01:05:51;;;;;;;21.80;20.70;;;13.80;58.20;;;;;;5012532;28;20383;-77
2022/09/18 01:08:39;;;;;;;22.27;20.98;;;13.90;58.20;;;;;;4989874;28;20057;-77
2022/09/18 01:11:20;;;;;;;21.67;20.58;;;13.90;58.10;;;;;;4996735;28;20038;-77
2022/09/18 01:14:05;;;;;;;20.13;18.83;;;13.90;57.60;;;;;;5012655;28;20025;-77
2022/09/18 01:16:57;;;;;;;20.88;19.67;;;13.90;57.30;;;;;;5013115;28;20049;-77
2022/09/18 01:19:44;;;;;;;19.23;18.23;;;13.90;57.20;;;;;;4955629;28;20058;-77
2022/09/18 01:22:32;;;;;;;18.25;17.33;;;13.90;57.60;;;;;;4972420;28;20484;-77
2022/09/18 01:25:20;;;;;;;17.77;16.67;;;13.80;57.40;;;;;;4972291;28;20563;-79
2022/09/18 01:28:15;;;;;;;18.60;17.60;;;13.90;57.70;;;;;;4937236;29;20131;-76
2022/09/18 01:30:42;;;;;;;22.02;20.73;;;13.90;58.50;;;;;;4918955;29;20042;-77
2022/09/18 01:33:12;;;;;;;20.88;19.67;;;13.90;58.00;;;;;;4935601;29;20027;-77
2022/09/18 01:35:42;;;;;;;20.98;19.95;;;13.80;58.00;;;;;;4936951;29;20043;-76
2022/09/18 01:38:14;;;;;;;18.98;17.88;;;13.80;58.30;;;;;;4937250;29;20035;-77
2022/09/18 01:40:45;;;;;;;18.60;17.60;;;13.80;58.50;;;;;;4958539;28;20043;-77
2022/09/18 01:43:13;;;;;;;18.58;17.30;;;13.80;58.40;;;;;;4956208;28;20039;-77
2022/09/18 01:46:00;;;;;;;19.38;18.27;;;13.70;57.90;;;;;;4939348;28;20399;-76
2022/09/18 01:48:38;;;;;;;18.75;17.77;;;13.80;57.90;;;;;;4938458;28;20058;-77
2022/09/18 01:51:19;;;;;;;17.35;16.15;;;13.70;58.00;;;;;;4939835;28;20042;-77
2022/09/18 01:53:59;;;;;;;17.92;16.52;;;13.70;58.80;;;;;;4940309;28;20039;-77
2022/09/18 01:56:27;;;;;;;16.35;15.38;;;13.70;59.10;;;;;;4966969;28;20046;-77
2022/09/18 01:58:55;;;;;;;16.45;15.57;;;13.60;59.10;;;;;;4995625;28;20037;-76
2022/09/18 02:01:21;;;;;;;17.73;16.73;;;13.60;59.20;;;;;;4979156;28;20030;-77
2022/09/18 02:03:49;;;;;;;17.23;16.23;;;13.50;59.30;;;;;;4995140;28;20040;-77
2022/09/18 02:06:20;;;;;;;16.70;15.60;;;13.40;59.60;;;;;;4995730;28;20033;-76
2022/09/18 02:08:50;;;;;;;15.50;14.50;;;13.40;60.20;;;;;;4995675;28;20040;-77
2022/09/18 02:11:17;;;;;;;14.70;13.90;;;13.40;60.00;;;;;;4995112;28;20383;-76
2022/09/18 02:13:49;;;;;;;15.65;14.65;;;13.30;60.00;;;;;;4995477;28;20030;-77
2022/09/18 02:16:28;;;;;;;15.82;14.85;;;13.20;60.50;;;;;;4979124;28;20053;-77
2022/09/18 02:18:56;;;;;;;15.07;14.18;;;13.20;60.50;;;;;;5010933;28;20451;-76
2022/09/18 02:21:25;;;;;;;15.00;14.10;;;13.20;60.90;;;;;;4978714;28;20471;-77
2022/09/18 02:23:53;;;;;;;14.40;13.60;;;13.20;61.00;;;;;;4995018;28;20491;-77
2022/09/18 02:26:19;;;;;;;16.08;14.88;;;13.20;60.90;;;;;;4978051;28;20038;-77
2022/09/18 02:28:46;;;;;;;15.82;14.73;;;13.10;61.00;;;;;;4994788;28;20037;-76
2022/09/18 02:31:12;;;;;;;14.05;13.30;;;13.10;61.00;;;;;;5010592;28;20044;-77
2022/09/18 02:33:38;;;;;;;14.43;13.35;;;13.10;61.00;;;;;;5010781;28;20049;-77
2022/09/18 02:36:19;;;;;;;14.48;13.48;;;13.10;61.10;;;;;;4995347;28;20045;-77
2022/09/18 02:38:55;;;;;;;14.32;13.50;;;13.00;61.40;;;;;;5011260;28;20049;-77
2022/09/18 02:41:36;;;;;;;13.80;13.00;;;13.00;61.40;;;;;;4991553;28;20034;-77
2022/09/18 02:44:13;;;;;;;13.52;12.82;;;13.00;61.30;;;;;;5002643;28;20048;-76
2022/09/18 02:46:45;;;;;;;13.50;12.77;;;13.00;61.40;;;;;;5043039;28;20041;-77
2022/09/18 02:49:39;;;;;;;14.32;13.57;;;13.00;61.50;;;;;;5030365;28;20025;-77
2022/09/18 02:52:13;;;;;;;13.98;13.27;;;12.90;61.90;;;;;;5030668;28;20060;-77
2022/09/18 02:55:03;;;;;;;14.63;13.63;;;12.90;62.00;;;;;;5029289;28;20370;-79
2022/09/18 02:57:38;;;;;;;14.60;13.85;;;12.90;62.40;;;;;;5030474;28;20397;-79
2022/09/18 03:00:05;;;;;;;13.50;12.80;;;12.80;62.40;;;;;;5013657;28;20033;-78
2022/09/18 03:02:31;;;;;;;12.88;12.18;;;12.80;62.90;;;;;;4997333;28;20043;-78
2022/09/18 03:04:57;;;;;;;13.48;12.77;;;12.70;63.10;;;;;;5013861;28;20025;-78
2022/09/18 03:07:23;;;;;;;18.10;17.00;;;12.70;63.20;;;;;;5014262;28;20044;-78
2022/09/18 03:09:50;;;;;;;19.60;18.60;;;12.60;63.20;;;;;;5013906;28;20049;-78
2022/09/18 03:12:16;;;;;;;17.17;15.98;;;12.60;63.20;;;;;;5013970;28;20029;-79
2022/09/18 03:14:42;;;;;;;16.52;15.63;;;12.60;63.20;;;;;;5013617;28;20041;-78
2022/09/18 03:17:08;;;;;;;15.25;14.45;;;12.60;63.30;;;;;;5029055;28;20438;-79
2022/09/18 03:19:34;;;;;;;14.65;13.75;;;12.60;63.20;;;;;;5013805;28;20034;-76
2022/09/18 03:22:00;;;;;;;13.65;12.95;;;12.50;63.40;;;;;;4996412;28;20072;-79
2022/09/18 03:24:26;;;;;;;14.13;13.20;;;12.50;63.30;;;;;;4997357;28;20037;-78
2022/09/18 03:26:53;;;;;;;13.88;13.18;;;12.50;63.40;;;;;;5013685;28;20026;-78
2022/09/18 03:29:19;;;;;;;13.63;12.73;;;12.50;63.20;;;;;;4997007;28;20041;-78
2022/09/18 03:31:45;;;;;;;14.05;13.02;;;12.50;63.30;;;;;;5012502;28;20060;-79
2022/09/18 03:34:11;;;;;;;15.15;13.95;;;12.50;63.70;;;;;;5013277;28;20033;-78
2022/09/18 03:36:37;;;;;;;14.77;13.52;;;12.40;65.00;;;;;;5029674;28;20402;-78
2022/09/18 03:39:04;;;;;;;13.88;13.07;;;12.30;64.60;;;;;;4996946;28;20041;-79
2022/09/18 03:41:30;;;;;;;13.23;12.43;;;12.30;64.80;;;;;;5013295;28;20402;-78
2022/09/18 03:43:56;;;;;;;12.75;11.85;;;12.20;64.80;;;;;;5050014;28;20033;-79
2022/09/18 03:46:23;;;;;;;13.50;12.70;;;12.20;64.80;;;;;;5048923;28;20040;-78
2022/09/18 03:48:49;;;;;;;13.73;13.02;;;12.20;64.80;;;;;;5032847;28;20481;-78
2022/09/18 03:51:17;;;;;;;13.95;13.05;;;12.20;64.50;;;;;;5012070;28;20044;-78
2022/09/18 03:53:44;;;;;;;13.70;13.00;;;12.30;64.80;;;;;;5029714;28;20025;-78
2022/09/18 03:56:11;;;;;;;13.40;12.70;;;12.30;64.70;;;;;;5012489;28;20049;-79
2022/09/18 03:58:37;;;;;;;14.10;13.40;;;12.30;64.50;;;;;;4996721;28;20060;-79
2022/09/18 04:01:04;;;;;;;13.73;13.02;;;12.20;64.70;;;;;;5012646;28;20040;-79
2022/09/18 04:03:30;;;;;;;13.10;12.30;;;12.10;65.10;;;;;;5013011;28;20048;-78
2022/09/18 04:05:56;;;;;;;13.10;12.20;;;12.00;65.20;;;;;;4996348;28;20399;-79
2022/09/18 04:08:22;;;;;;;14.15;13.35;;;12.00;65.20;;;;;;4996708;28;20044;-78
2022/09/18 04:10:48;;;;;;;15.80;14.82;;;12.00;65.20;;;;;;5029561;28;20033;-78
2022/09/18 04:13:15;;;;;;;16.20;15.30;;;12.00;65.20;;;;;;4996175;28;20045;-79
2022/09/18 04:15:43;;;;;;;15.68;14.68;;;12.00;65.00;;;;;;5028901;28;20048;-78
2022/09/18 04:18:10;;;;;;;16.10;15.05;;;12.10;65.60;;;;;;5013332;28;20037;-79
2022/09/18 04:20:36;;;;;;;16.23;14.80;;;12.00;65.50;;;;;;5011752;28;20046;-79
2022/09/18 04:23:02;;;;;;;19.75;18.13;;;12.00;65.50;;;;;;5030434;28;20041;-78
2022/09/18 04:25:28;;;;;;;18.48;17.17;;;12.00;65.60;;;;;;5013257;28;20038;-78
2022/09/18 04:27:55;;;;;;;22.38;20.83;;;12.00;66.00;;;;;;5030036;28;20486;-79
2022/09/18 04:30:21;;;;;;;19.25;18.05;;;11.90;66.20;;;;;;4996279;28;20030;-79
2022/09/18 04:32:49;;;;;;;21.13;19.75;;;11.90;66.30;;;;;;5012792;28;20029;-79
2022/09/18 04:35:15;;;;;;;18.42;17.23;;;11.80;66.20;;;;;;5029066;28;20025;-78
2022/09/18 04:37:42;;;;;;;21.30;20.00;;;11.90;66.40;;;;;;4996483;28;20046;-78
2022/09/18 04:40:09;;;;;;;20.50;19.27;;;11.90;66.50;;;;;;4996505;28;20049;-79
2022/09/18 04:42:36;;;;;;;18.80;17.80;;;11.80;66.50;;;;;;5012583;28;20513;-79
2022/09/18 04:45:02;;;;;;;17.85;16.52;;;11.80;66.50;;;;;;5042356;28;20021;-79
2022/09/18 04:47:29;;;;;;;18.65;17.48;;;11.80;66.60;;;;;;5024736;28;20060;-79
2022/09/18 04:49:55;;;;;;;18.15;16.95;;;11.80;66.70;;;;;;5029062;28;20032;-79
2022/09/18 04:52:21;;;;;;;21.17;19.95;;;11.80;66.60;;;;;;5012314;28;20037;-78
2022/09/18 04:54:47;;;;;;;23.38;21.98;;;11.70;66.70;;;;;;5029006;28;20378;-78
2022/09/18 04:57:13;;;;;;;19.90;18.80;;;11.70;67.00;;;;;;5012477;28;20045;-79
2022/09/18 04:59:40;;;;;;;22.33;21.13;;;11.60;67.30;;;;;;5012425;28;20034;-79
2022/09/18 05:02:06;;;;;;;19.63;18.50;;;11.60;67.30;;;;;;5011824;28;20045;-78
2022/09/18 05:04:32;;;;;;;20.38;19.38;;;11.60;67.50;;;;;;5012783;28;20037;-79
2022/09/18 05:06:58;;;;;;;19.90;18.90;;;11.60;67.50;;;;;;5030000;28;20034;-79
2022/09/18 05:09:24;;;;;;;21.00;19.70;;;11.50;67.60;;;;;;5032424;28;20382;-79
2022/09/18 05:11:50;;;;;;;19.98;18.95;;;11.50;67.70;;;;;;5015664;28;20037;-79
2022/09/18 05:14:16;;;;;;;18.48;17.48;;;11.50;67.70;;;;;;5032473;28;20032;-79
2022/09/18 05:16:42;;;;;;;15.70;14.70;;;11.40;67.90;;;;;;5031714;28;20033;-79
2022/09/18 05:19:08;;;;;;;14.65;13.85;;;11.40;67.80;;;;;;5032088;28;20056;-78
2022/09/18 05:21:34;;;;;;;18.23;17.25;;;11.50;67.60;;;;;;5033322;28;20033;-78
2022/09/18 05:24:01;;;;;;;15.75;14.85;;;11.40;67.80;;;;;;5013958;28;20431;-79
2022/09/18 05:26:29;;;;;;;15.60;14.80;;;11.40;67.70;;;;;;5031801;28;20041;-78
2022/09/18 05:28:55;;;;;;;16.10;14.82;;;11.40;67.80;;;;;;5003314;28;20092;-78
2022/09/18 05:31:21;;;;;;;22.58;21.33;;;11.40;68.10;;;;;;4992200;28;20042;-79
2022/09/18 05:33:47;;;;;;;22.08;20.83;;;11.40;68.20;;;;;;4992691;28;20035;-79
2022/09/18 05:36:13;;;;;;;18.27;17.08;;;11.40;67.80;;;;;;4992702;28;20045;-79
2022/09/18 05:38:39;;;;;;;22.77;21.35;;;11.40;68.30;;;;;;4994192;28;20034;-78
2022/09/18 05:41:05;;;;;;;20.25;19.13;;;11.30;68.20;;;;;;5002909;28;20037;-79
2022/09/18 05:43:31;;;;;;;18.33;16.98;;;11.30;68.40;;;;;;5012182;28;20040;-79
2022/09/18 05:45:59;;;;;;;14.88;13.98;;;11.30;68.60;;;;;;4994222;28;20042;-79
2022/09/18 05:48:25;;;;;;;15.38;13.90;;;11.20;68.80;;;;;;4995416;28;20049;-79
2022/09/18 05:50:51;;;;;;;14.40;13.60;;;11.20;69.00;;;;;;5013369;28;20045;-79
2022/09/18 05:53:18;;;;;;;14.80;14.00;;;11.30;69.20;;;;;;4995404;28;20495;-78
2022/09/18 05:55:44;;;;;;;15.20;14.30;;;11.30;69.00;;;;;;5011588;28;20391;-79
2022/09/18 05:58:12;;;;;;;15.52;14.55;;;11.30;69.10;;;;;;4995332;28;20049;-79
2022/09/18 06:00:38;;;;;;;15.15;14.07;;;11.30;69.20;;;;;;5011325;28;20061;-79
2022/09/18 06:03:05;;;;;;;14.52;13.55;;;11.30;69.00;;;;;;4995423;28;20041;-79
2022/09/18 06:05:33;;;;;;;14.73;13.75;;;11.30;69.10;;;;;;4995562;28;20399;-78
2022/09/18 06:08:06;;;;;;;14.93;13.88;;;11.20;69.20;;;;;;4995154;28;20421;-79
2022/09/18 06:10:36;;;;;;;14.23;13.43;;;11.20;69.30;;;;;;5011218;28;20029;-78
2022/09/18 06:13:06;;;;;;;15.00;14.18;;;11.20;69.40;;;;;;5011537;28;20026;-79
2022/09/18 06:15:32;;;;;;;14.93;14.13;;;11.20;69.60;;;;;;4995057;28;20506;-78
2022/09/18 06:17:58;;;;;;;15.90;14.80;;;11.20;69.60;;;;;;4994357;28;20608;-79
2022/09/18 06:20:25;;;;;;;16.42;15.52;;;11.20;69.70;;;;;;5011359;28;20026;-79
2022/09/18 06:22:51;;;;;;;15.30;14.40;;;11.20;69.70;;;;;;4994941;28;20042;-79
2022/09/18 06:25:20;;;;;;;15.52;14.63;;;11.20;69.60;;;;;;4995080;28;20041;-79
2022/09/18 06:27:53;;;;;;;16.10;15.30;;;11.20;69.70;;;;;;5011106;28;20037;-79
2022/09/18 06:30:22;;;;;;;21.50;20.17;;;11.30;71.00;;;;;;5009553;28;20030;-79
2022/09/18 06:32:48;;;;;;;23.20;21.90;;;11.40;73.30;;;;;;4994212;28;20045;-79
2022/09/18 06:35:14;;;;;;;19.80;18.55;;;11.70;73.60;;;;;;5011161;28;20022;-79
2022/09/18 06:37:40;;;;;;;17.70;16.70;;;12.00;73.40;;;;;;5010894;28;20037;-79
2022/09/18 06:40:08;;;;;;;16.58;15.68;;;12.30;72.40;;;;;;4993852;28;20029;-79
2022/09/18 06:42:34;;;;;;;18.08;17.05;;;12.70;72.00;;;;;;4994222;28;20046;-77
2022/09/18 06:45:00;;;;;;;18.48;17.48;;;13.00;70.90;;;;;;5009924;28;20494;-76
2022/09/18 06:47:26;;;;;;;17.10;16.10;;;13.30;69.90;;;;;;4993906;28;20057;-77
2022/09/18 06:49:52;;;;;;;17.17;16.13;;;13.60;69.10;;;;;;5010791;28;20411;-77
2022/09/18 06:52:18;;;;;;;18.38;17.17;;;13.80;68.00;;;;;;4994468;28;20038;-77
2022/09/18 06:54:44;;;;;;;19.40;18.35;;;14.10;67.10;;;;;;5011507;28;20073;-77
2022/09/18 06:57:11;;;;;;;18.90;17.90;;;14.40;66.20;;;;;;5010667;28;20041;-77
2022/09/18 06:59:37;;;;;;;20.08;18.98;;;14.70;65.30;;;;;;5010761;28;20041;-77
2022/09/18 07:02:05;;;;;;;20.13;18.92;;;14.90;64.40;;;;;;5010299;28;20030;-77
2022/09/18 07:04:31;;;;;;;23.20;21.90;;;15.20;63.30;;;;;;5010698;28;20037;-77
2022/09/18 07:06:57;;;;;;;27.80;26.30;;;15.50;62.50;;;;;;5010629;28;20033;-77
2022/09/18 07:09:23;;;;;;;25.00;23.70;;;15.70;60.90;;;;;;4993799;28;20049;-77
2022/09/18 07:11:49;;;;;;;30.08;28.48;;;15.90;60.40;;;;;;4993047;28;20045;-77
2022/09/18 07:14:15;;;;;;;29.30;27.70;;;16.00;57.70;;;;;;5010445;28;20026;-76
2022/09/18 07:16:41;;;;;;;28.55;26.95;;;15.80;58.50;;;;;;5009835;28;20037;-77
2022/09/18 07:19:07;;;;;;;22.70;21.58;;;15.50;58.50;;;;;;5010692;28;20025;-77
2022/09/18 07:21:33;;;;;;;23.20;22.00;;;15.20;58.30;;;;;;5010259;28;20045;-77
2022/09/18 07:23:59;;;;;;;23.25;22.05;;;14.90;58.90;;;;;;4993970;28;20041;-76
2022/09/18 07:26:25;;;;;;;23.42;22.08;;;14.90;59.40;;;;;;5011543;28;20026;-77
2022/09/18 07:28:51;;;;;;;29.70;28.10;;;14.90;59.40;;;;;;5010113;28;20026;-76
2022/09/18 07:31:18;;;;;;;29.23;27.60;;;14.90;59.50;;;;;;5008979;28;20376;-76
2022/09/18 07:33:44;;;;;;;28.60;27.10;;;14.80;59.60;;;;;;4993686;28;20049;-76
2022/09/18 07:36:10;;;;;;;26.25;24.88;;;14.70;59.40;;;;;;5009672;28;20033;-76
2022/09/18 07:38:36;;;;;;;27.13;25.52;;;14.60;60.20;;;;;;4993562;28;20427;-76
2022/09/18 07:41:03;;;;;;;25.92;24.38;;;14.60;60.00;;;;;;4999224;28;20038;-77
2022/09/18 07:43:29;;;;;;;24.52;23.30;;;14.70;59.70;;;;;;5010085;28;20030;-76
2022/09/18 07:45:55;;;;;;;24.50;23.20;;;14.80;59.60;;;;;;4976798;28;20038;-76
2022/09/18 07:48:22;;;;;;;25.65;24.15;;;14.90;59.10;;;;;;5009078;28;20049;-77
2022/09/18 07:50:49;;;;;;;25.95;24.30;;;14.90;59.60;;;;;;5009765;28;20053;-76
2022/09/18 07:53:17;;;;;;;26.80;25.25;;;15.50;59.90;;;;;;5009795;28;20045;-77
2022/09/18 07:55:46;;;;;;;26.88;25.48;;;15.50;57.50;;;;;;5009759;28;20045;-77
2022/09/18 07:58:12;;;;;;;28.67;26.88;;;15.60;58.50;;;;;;5009720;28;20038;-77
2022/09/18 08:00:38;;;;;;;27.92;26.45;;;15.70;57.50;;;;;;5009176;28;20049;-77
2022/09/18 08:03:08;;;;;;;26.33;24.92;;;15.80;57.10;;;;;;5009733;28;20045;-77
2022/09/18 08:05:34;;;;;;;27.88;26.27;;;16.20;57.20;;;;;;5009507;28;20038;-77
2022/09/18 08:08:03;;;;;;;25.98;24.60;;;16.10;56.30;;;;;;5009730;28;20053;-77
2022/09/18 08:10:29;;;;;;;25.77;24.45;;;16.50;56.00;;;;;;5008426;28;20049;-77
2022/09/18 08:12:55;;;;;;;23.33;22.13;;;16.70;56.10;;;;;;5009657;28;20029;-77
2022/09/18 08:15:21;;;;;;;22.42;21.23;;;16.90;53.80;;;;;;5009412;28;20034;-77
2022/09/18 08:17:47;;;;;;;23.08;21.77;;;16.90;54.90;;;;;;5009593;28;20045;-77
2022/09/18 08:20:13;;;;;;;22.88;21.58;;;17.10;53.10;;;;;;5010837;28;20030;-77
2022/09/18 08:22:40;;;;;;;23.50;22.02;;;17.20;53.80;;;;;;4992981;28;20045;-77
2022/09/18 08:25:06;;;;;;;23.98;22.35;;;17.30;53.20;;;;;;4993063;28;20038;-77
2022/09/18 08:27:39;;;;;;;24.10;22.80;;;17.50;53.30;;;;;;4992992;28;20044;-77
2022/09/18 08:30:06;;;;;;;23.65;22.45;;;17.80;52.20;;;;;;4992892;28;20034;-77
2022/09/18 08:32:32;;;;;;;22.90;21.65;;;18.00;52.10;;;;;;5009323;28;20030;-77
2022/09/18 08:35:01;;;;;;;24.38;23.17;;;18.10;51.00;;;;;;4992935;28;20042;-77
2022/09/18 08:37:28;;;;;;;25.90;24.60;;;18.40;51.30;;;;;;5009564;28;20041;-77
2022/09/18 08:39:54;;;;;;;26.55;25.05;;;18.70;50.10;;;;;;5008301;28;20399;-77
2022/09/18 08:42:26;;;;;;;24.20;22.90;;;18.50;50.00;;;;;;5011249;28;20464;-77
2022/09/18 08:44:54;;;;;;;23.00;21.77;;;18.70;50.00;;;;;;5014403;28;20053;-77
2022/09/18 08:47:25;;;;;;;22.70;21.30;;;18.40;50.10;;;;;;4976472;28;20403;-77
2022/09/18 08:50:00;;;;;;;22.40;21.30;;;18.20;50.00;;;;;;4976657;28;20045;-77
2022/09/18 08:52:27;;;;;;;24.30;23.00;;;18.10;50.80;;;;;;4976776;28;20492;-77
2022/09/18 08:54:58;;;;;;;24.58;23.20;;;18.30;50.60;;;;;;4993649;28;20022;-78
2022/09/18 08:57:47;;;;;;;23.23;21.90;;;18.50;50.10;;;;;;4993337;28;20045;-77
2022/09/18 09:00:35;;;;;;;23.58;22.27;;;18.50;50.10;;;;;;4992927;28;20027;-78
2022/09/18 09:03:07;;;;;;;24.30;22.83;;;18.60;50.30;;;;;;4993057;28;20030;-78
2022/09/18 09:05:45;;;;;;;26.13;24.73;;;18.70;49.50;;;;;;4992820;28;20034;-77
2022/09/18 09:08:35;;;;;;;23.33;21.90;;;18.70;48.70;;;;;;4975543;28;20122;-77
2022/09/18 09:11:09;;;;;;;28.23;26.83;;;18.50;49.50;;;;;;4994310;28;20038;-78
2022/09/18 09:14:00;;;;;;;28.77;27.27;;;18.70;49.30;;;;;;4993242;28;20388;-78
2022/09/18 09:16:33;;;;;;;29.05;27.58;;;18.90;48.00;;;;;;4993843;28;20045;-78
2022/09/18 09:19:12;;;;;;;29.73;28.23;;;18.80;47.70;;;;;;4992166;28;20046;-78
2022/09/18 09:21:47;;;;;;;29.40;27.83;;;19.10;48.40;;;;;;4992529;28;20045;-78
2022/09/18 09:24:26;;;;;;;28.08;26.70;;;19.50;47.40;;;;;;4992474;28;20403;-78
2022/09/18 09:26:52;;;;;;;27.10;25.70;;;19.60;47.00;;;;;;4994037;28;20026;-78
2022/09/18 09:29:47;;;;;;;26.50;24.92;;;19.30;47.10;;;;;;5010277;28;20383;-78
2022/09/18 09:32:53;;;;;;;27.08;25.50;;;19.20;47.60;;;;;;5011224;28;20038;-78
2022/09/18 09:35:35;;;;;;;28.02;26.48;;;19.10;47.70;;;;;;5012303;28;20050;-78
2022/09/18 09:38:12;;;;;;;27.15;25.75;;;19.50;47.40;;;;;;4995695;28;20050;-78
2022/09/18 09:40:41;;;;;;;25.63;24.27;;;19.60;47.00;;;;;;4998622;28;20488;-78
2022/09/18 09:43:17;;;;;;;25.75;24.45;;;19.70;47.70;;;;;;4995805;28;20038;-78
2022/09/18 09:45:47;;;;;;;24.33;23.02;;;19.60;46.70;;;;;;5011650;28;20030;-78
2022/09/18 09:48:59;;;;;;;25.77;24.27;;;19.60;48.00;;;;;;4995692;28;20042;-78
2022/09/18 09:51:29;;;;;;;;;;;19.70;47.40;;;;;;5013697;28;20045;-78
2022/09/18 09:53:56;;;;;;;28.50;26.83;;;19.60;47.40;;;;;;5011305;28;19905;-78
2022/09/18 09:56:44;;;;;;;26.05;24.65;;;19.50;46.50;;;;;;5012034;28;20030;-78
2022/09/18 09:59:33;;;;;;;29.08;27.58;;;19.20;46.90;;;;;;5012923;28;20394;-78
2022/09/18 10:02:28;;;;;;;27.90;26.30;;;19.20;46.90;;;;;;4994662;28;20034;-78
2022/09/18 10:05:09;;;;;;;25.35;24.05;;;19.10;47.30;;;;;;4995721;28;20041;-78
2022/09/18 10:07:38;;;;;;;24.55;23.25;;;19.00;48.20;;;;;;4996630;28;20038;-78
2022/09/18 10:10:16;;;;;;;24.92;23.60;;;19.10;47.70;;;;;;5011553;28;20037;-78
2022/09/18 10:12:54;;;;;;;24.48;23.23;;;19.00;47.70;;;;;;5012618;28;20033;-78
2022/09/18 10:15:46;;;;;;;26.98;25.65;;;19.10;48.10;;;;;;5010981;28;20034;-78
2022/09/18 10:18:21;;;;;;;28.80;27.30;;;19.10;47.20;;;;;;5011070;28;20046;-78
2022/09/18 10:20:48;;;;;;;28.05;26.55;;;19.20;46.90;;;;;;5011493;28;20029;-78
2022/09/18 10:23:19;;;;;;;28.30;26.80;;;19.20;46.20;;;;;;5011291;28;20045;-78
2022/09/18 10:25:48;;;;;;;26.58;25.20;;;19.30;46.40;;;;;;5011369;28;20033;-78
2022/09/18 10:28:15;;;;;;;26.85;25.25;;;19.30;46.30;;;;;;5011162;28;20033;-78
2022/09/18 10:31:04;;;;;;;27.58;25.98;;;19.30;46.70;;;;;;4999135;28;20042;-77
2022/09/18 10:33:51;;;;;;;29.17;27.67;;;19.40;46.80;;;;;;4999600;28;20399;-78
2022/09/18 10:36:37;;;;;;;27.58;26.08;;;19.50;45.90;;;;;;4998798;28;20033;-77
2022/09/18 10:39:36;;;;;;;28.95;27.38;;;19.40;46.50;;;;;;5030533;28;20054;-77
2022/09/18 10:42:06;;;;;;;26.83;25.52;;;19.40;46.30;;;;;;4956548;28;20042;-78
2022/09/18 10:44:36;;;;;;;30.30;28.47;;;19.20;46.60;;;;;;4989685;28;20046;-78
2022/09/18 10:47:04;;;;;;;29.42;27.83;;;19.40;47.00;;;;;;4970269;28;20054;-78
2022/09/18 10:49:39;;;;;;;29.50;27.92;;;19.70;46.30;;;;;;4954661;28;20034;-78
2022/09/18 10:52:34;;;;;;;26.98;25.58;;;20.00;45.20;;;;;;4954725;28;20050;-78
2022/09/18 10:55:06;;;;;;;27.90;26.50;;;19.90;44.70;;;;;;4954704;28;20522;-78
2022/09/18 10:57:54;;;;;;;28.83;27.23;;;19.70;44.60;;;;;;4970703;28;20547;-78
2022/09/18 11:00:20;;;;;;;28.55;27.05;;;19.60;45.10;;;;;;4958611;28;20046;-78
2022/09/18 11:02:55;;;;;;;28.35;26.30;;;19.60;45.10;;;;;;5006131;28;20041;-78
2022/09/18 11:05:37;;;;;;;27.77;26.23;;;19.60;45.10;;;;;;4957134;28;20491;-78
2022/09/18 11:08:06;;;;;;;27.85;26.45;;;19.80;44.80;;;;;;4973761;28;20042;-78
2022/09/18 11:10:32;;;;;;;27.13;25.83;;;20.00;45.40;;;;;;4973558;28;20038;-78
2022/09/18 11:13:00;;;;;;;26.95;25.45;;;20.00;44.50;;;;;;4973840;28;20034;-78
2022/09/18 11:15:27;;;;;;;25.98;24.63;;;19.90;44.40;;;;;;4956862;28;20034;-78
2022/09/18 11:17:55;;;;;;;27.17;25.58;;;19.80;44.80;;;;;;4958212;28;20046;-78
2022/09/18 11:20:26;;;;;;;27.30;25.88;;;19.70;45.30;;;;;;5007084;28;20030;-78
2022/09/18 11:22:52;;;;;;;;;;;19.70;45.10;;;;;;5006882;28;20026;-78
2022/09/18 11:25:23;;;;;;;29.95;28.25;;;19.70;44.60;;;;;;5023402;28;19909;-78
2022/09/18 11:27:51;;;;;;;29.27;27.70;;;19.70;44.60;;;;;;5006770;28;20034;-78
2022/09/18 11:30:28;;;;;;;26.73;25.15;;;19.90;45.60;;;;;;5022586;28;20041;-78
2022/09/18 11:33:03;;;;;;;26.15;24.80;;;20.00;44.40;;;;;;4989500;28;20030;-78
2022/09/18 11:35:30;;;;;;;27.00;25.60;;;19.90;44.80;;;;;;4990701;28;20369;-78
2022/09/18 11:38:05;;;;;;;28.63;27.08;;;19.80;45.20;;;;;;4990394;28;20042;-78
2022/09/18 11:40:32;;;;;;;28.65;27.00;;;19.70;45.30;;;;;;4995227;28;20113;-78
2022/09/18 11:43:01;;;;;;;26.55;25.05;;;19.80;45.20;;;;;;4993193;28;20490;-78
2022/09/18 11:45:58;;;;;;;28.25;26.65;;;19.90;45.00;;;;;;5029507;28;20044;-78
2022/09/18 11:48:50;;;;;;;28.27;26.90;;;19.90;45.50;;;;;;4975027;28;20059;-78
2022/09/18 11:51:28;;;;;;;28.63;26.63;;;20.00;45.30;;;;;;4969049;28;20061;-78
2022/09/18 11:54:03;;;;;;;27.30;25.90;;;20.20;45.00;;;;;;4953519;28;20041;-78
2022/09/18 11:56:50;;;;;;;27.30;25.88;;;20.30;45.20;;;;;;4953954;28;20035;-78
2022/09/18 11:59:35;;;;;;;27.13;25.65;;;20.20;45.40;;;;;;4953233;28;20043;-77
2022/09/18 12:02:13;;;;;;;27.25;25.58;;;20.20;45.00;;;;;;4968495;28;20034;-77
2022/09/18 12:04:39;;;;;;;27.48;26.05;;;20.10;45.10;;;;;;4988964;28;20102;-78
2022/09/18 12:07:23;;;;;;;26.20;24.77;;;20.20;46.00;;;;;;4972823;28;20046;-78
2022/09/18 12:09:55;;;;;;;27.00;25.50;;;20.40;44.60;;;;;;4988912;28;20046;-78
2022/09/18 12:12:34;;;;;;;26.75;25.35;;;20.50;44.50;;;;;;4972124;28;20503;-78
2022/09/18 12:15:24;;;;;;;27.50;26.05;;;20.40;44.40;;;;;;4972649;28;20057;-77
2022/09/18 12:17:52;;;;;;;27.73;26.17;;;20.40;44.90;;;;;;4974842;28;20041;-78
2022/09/18 12:20:25;;;;;;;26.45;24.75;;;20.50;44.10;;;;;;4992966;28;20035;-78
2022/09/18 12:22:57;;;;;;;26.33;24.92;;;20.60;43.50;;;;;;4976706;28;20034;-78
2022/09/18 12:25:39;;;;;;;26.23;24.85;;;20.50;43.60;;;;;;4982543;28;20042;-78
2022/09/18 12:28:14;;;;;;;26.27;24.98;;;20.60;43.60;;;;;;5016674;28;20463;-78
2022/09/18 12:31:06;;;;;;;26.05;24.70;;;20.70;43.40;;;;;;4993459;28;20393;-78
2022/09/18 12:33:50;;;;;;;26.27;24.98;;;20.60;43.90;;;;;;4993316;28;20053;-78
2022/09/18 12:36:25;;;;;;;25.08;23.83;;;20.90;44.30;;;;;;4993880;28;20022;-77
2022/09/18 12:39:13;;;;;;;27.10;25.70;;;21.10;42.90;;;;;;4995117;28;20383;-78
2022/09/18 12:41:46;;;;;;;25.10;23.80;;;21.30;43.60;;;;;;5008676;28;20571;-78
2022/09/18 12:44:28;;;;;;;25.88;24.40;;;21.50;41.50;;;;;;5013340;28;20021;-78
2022/09/18 12:47:17;;;;;;;25.23;23.83;;;21.40;41.60;;;;;;5012216;28;20061;-78
2022/09/18 12:50:06;;;;;;;24.67;23.38;;;21.60;41.60;;;;;;5013329;28;20037;-77